Time;durP1;ratioP1;P1;durP2;ratioP2;P2;SDS_P1;SDS_P2;PMS_P1;PMS_P2;Temp;Humidity;BMP_temperature;BMP_pressure;BME280_temperature;BME280_humidity;BME280_pressure;Samples;Min_cycle;Max_cycle;Signal;HPM_P1;HPM_P2
2022/09/09 00:03:27;;;;;;;1999.90;999.90;;;;;;;15.36;94.54;98823.03;8295393;28;20131;-79
2022/09/09 00:07:42;;;;;;;1999.90;999.90;;;;;;;15.41;94.40;98816.72;8313099;28;20089;-79
2022/09/09 00:11:51;;;;;;;1999.90;999.90;;;;;;;15.47;94.28;98810.44;8317185;28;20046;-78
2022/09/09 00:16:16;;;;;;;1999.90;999.90;;;;;;;15.50;94.10;98806.88;8288378;28;20063;-79
2022/09/09 00:20:35;;;;;;;1999.90;999.90;;;;;;;15.52;94.05;98792.81;8318993;28;20657;-79
2022/09/09 00:24:43;;;;;;;1999.90;999.90;;;;;;;15.53;94.08;98802.38;8288817;28;20639;-79
2022/09/09 00:28:52;;;;;;;1999.90;999.90;;;;;;;15.51;94.53;98801.59;8317505;28;20532;-78
2022/09/09 00:33:11;;;;;;;1999.90;999.90;;;;;;;15.47;94.81;98802.59;8321923;28;20107;-79
2022/09/09 00:37:15;;;;;;;1999.90;999.90;;;;;;;15.45;94.50;98806.19;8303506;28;20046;-79
2022/09/09 00:41:40;;;;;;;1999.90;999.90;;;;;;;15.37;93.93;98809.03;8315566;28;20050;-78
2022/09/09 00:46:18;;;;;;;1999.90;999.90;;;;;;;15.30;93.74;98805.78;8299693;28;20058;-79
2022/09/09 00:50:35;;;;;;;1999.90;999.90;;;;;;;15.26;93.21;98806.78;8294042;28;20670;-79
2022/09/09 00:54:49;;;;;;;1999.90;999.90;;;;;;;15.21;92.97;98818.28;8294113;28;20099;-79
2022/09/09 00:59:12;;;;;;;1999.90;999.90;;;;;;;15.15;93.75;98814.13;8299394;28;20095;-79
2022/09/09 01:03:24;;;;;;;1999.90;999.90;;;;;;;15.14;93.79;98812.41;8336357;28;20049;-79
2022/09/09 01:07:32;;;;;;;1999.90;999.90;;;;;;;15.12;93.97;98816.84;8304348;28;20586;-79
2022/09/09 01:12:11;;;;;;;1999.90;999.90;;;;;;;14.98;93.91;98821.63;8304751;28;20103;-79
2022/09/09 01:16:14;;;;;;;1999.90;999.90;;;;;;;14.94;94.44;98825.25;8303207;28;20156;-78
2022/09/09 01:20:19;;;;;;;1999.90;999.90;;;;;;;14.88;94.58;98825.44;8288691;28;20056;-79
2022/09/09 01:24:46;;;;;;;1999.90;999.90;;;;;;;14.89;94.82;98822.75;8327692;28;20148;-79
2022/09/09 01:28:52;;;;;;;1999.90;999.90;;;;;;;14.90;95.03;98828.84;8308974;28;20318;-79
2022/09/09 01:32:58;;;;;;;1999.90;999.90;;;;;;;14.96;94.98;98818.22;8322588;28;20119;-78
2022/09/09 01:37:04;;;;;;;1999.90;999.90;;;;;;;15.04;95.09;98821.44;8306412;28;20038;-79
2022/09/09 01:41:06;;;;;;;1999.90;999.90;;;;;;;15.03;94.71;98819.72;8304159;28;20096;-79
2022/09/09 01:45:08;;;;;;;1999.90;999.90;;;;;;;15.06;94.38;98827.47;8315873;28;20098;-78
2022/09/09 01:49:10;;;;;;;1999.90;999.90;;;;;;;15.11;93.79;98815.97;8307335;28;20034;-79
2022/09/09 01:53:20;;;;;;;1999.90;999.90;;;;;;;15.14;93.39;98822.00;8320201;28;20095;-78
2022/09/09 01:57:30;;;;;;;1999.90;999.90;;;;;;;15.20;93.08;98829.66;8318970;28;20120;-78
2022/09/09 02:01:47;;;;;;;1999.90;999.90;;;;;;;15.22;93.35;98814.75;8280774;28;20045;-79
2022/09/09 02:06:05;;;;;;;1999.90;999.90;;;;;;;15.23;93.52;98806.84;8306720;28;20120;-78
2022/09/09 02:10:13;;;;;;;1999.90;999.90;;;;;;;15.21;93.05;98813.06;8306313;28;20048;-78
2022/09/09 02:14:27;;;;;;;1999.90;999.90;;;;;;;15.17;92.65;98807.06;8306670;28;20045;-79
2022/09/09 02:18:38;;;;;;;1999.90;999.90;;;;;;;15.09;92.43;98816.94;8312427;28;20115;-78
2022/09/09 02:22:43;;;;;;;1999.90;999.90;;;;;;;15.04;92.47;98805.75;8298411;28;20053;-78
2022/09/09 02:26:49;;;;;;;1999.90;999.90;;;;;;;15.01;92.82;98798.84;8297415;28;20569;-78
2022/09/09 02:30:54;;;;;;;1999.90;999.90;;;;;;;14.97;93.20;98804.25;8322022;28;20057;-79
2022/09/09 02:35:03;;;;;;;1999.90;999.90;;;;;;;14.92;93.59;98806.16;8331034;28;20371;-78
2022/09/09 02:39:08;;;;;;;1999.90;999.90;;;;;;;14.86;93.65;98803.72;8314381;28;20045;-78
2022/09/09 02:43:09;;;;;;;1999.90;999.90;;;;;;;14.85;93.99;98810.69;8324858;28;20606;-78
2022/09/09 02:47:30;;;;;;;1999.90;999.90;;;;;;;14.81;94.05;98804.72;8304462;28;20116;-79
2022/09/09 02:51:49;;;;;;;1999.90;999.90;;;;;;;14.75;94.13;98809.28;8303109;28;20050;-78
2022/09/09 02:56:01;;;;;;;1999.90;999.90;;;;;;;14.69;94.46;98805.09;8312884;28;20049;-78
2022/09/09 03:00:03;;;;;;;1999.90;999.90;;;;;;;14.62;94.20;98798.34;8299913;28;20041;-79
2022/09/09 03:04:05;;;;;;;;;;;;;;;14.58;93.85;98799.34;8323220;28;20045;-79
2022/09/09 03:08:06;;;;;;;1999.90;999.90;;;;;;;14.52;93.86;98802.13;8321656;28;19925;-79
2022/09/09 03:12:10;;;;;;;1999.90;999.90;;;;;;;14.48;93.66;98813.56;8300528;28;20111;-78
2022/09/09 03:16:12;;;;;;;1999.90;999.90;;;;;;;14.39;94.09;98817.28;8304525;28;20057;-79
2022/09/09 03:20:14;;;;;;;1999.90;999.90;;;;;;;14.36;94.29;98821.72;8302676;28;20041;-79
2022/09/09 03:24:15;;;;;;;1999.90;999.90;;;;;;;14.33;94.52;98830.50;8285290;28;20044;-79
2022/09/09 03:28:24;;;;;;;1999.90;999.90;;;;;;;14.34;94.43;98824.38;8326077;28;20033;-79
2022/09/09 03:32:26;;;;;;;1999.90;999.90;;;;;;;14.39;95.02;98817.28;8288527;28;20122;-80
2022/09/09 03:36:29;;;;;;;1999.90;999.90;;;;;;;14.45;95.23;98818.88;8312522;28;20049;-79
2022/09/09 03:40:31;;;;;;;1999.90;999.90;;;;;;;14.49;95.18;98818.75;8295000;28;20103;-79
2022/09/09 03:44:32;;;;;;;1999.90;999.90;;;;;;;14.49;94.76;98815.28;8285979;28;20377;-78
2022/09/09 03:48:34;;;;;;;1999.90;999.90;;;;;;;14.49;94.77;98816.13;8289163;28;20042;-78
2022/09/09 03:52:38;;;;;;;1999.90;999.90;;;;;;;14.46;94.64;98818.84;8304254;28;20501;-79
2022/09/09 03:56:41;;;;;;;1999.90;999.90;;;;;;;14.47;94.62;98822.31;8300311;28;20057;-78
2022/09/09 04:00:43;;;;;;;1999.90;999.90;;;;;;;14.46;94.64;98813.63;8294711;28;20540;-78
2022/09/09 04:04:44;;;;;;;1999.90;999.90;;;;;;;14.44;94.54;98823.25;8299062;28;20381;-78
2022/09/09 04:08:48;;;;;;;1999.90;999.90;;;;;;;14.43;94.36;98812.81;8319528;28;20045;-78
2022/09/09 04:12:50;;;;;;;1999.90;999.90;;;;;;;14.43;94.55;98823.28;8301183;28;20041;-79
2022/09/09 04:16:59;;;;;;;1999.90;999.90;;;;;;;14.46;94.77;98824.06;8298976;28;20037;-78
2022/09/09 04:21:01;;;;;;;;;;;;;;;14.51;95.11;98822.16;8316679;28;20610;-79
2022/09/09 04:25:02;;;;;;;1999.90;999.90;;;;;;;14.59;95.41;98827.19;8309060;28;19933;-78
2022/09/09 04:29:05;;;;;;;1999.90;999.90;;;;;;;14.66;95.70;98826.09;8301287;28;20042;-78
2022/09/09 04:33:07;;;;;;;1999.90;999.90;;;;;;;14.73;95.81;98824.16;8307134;28;20102;-78
2022/09/09 04:37:09;;;;;;;;;;;;;;;14.75;96.13;98832.81;8330480;28;20048;-79
2022/09/09 04:41:11;;;;;;;1999.90;999.90;;;;;;;14.77;95.46;98833.63;8301001;28;19978;-79
2022/09/09 04:45:19;;;;;;;1999.90;999.90;;;;;;;14.81;95.41;98830.00;8310477;28;20050;-78
2022/09/09 04:49:20;;;;;;;1999.90;999.90;;;;;;;14.87;94.92;98831.56;8321144;28;20045;-79
2022/09/09 04:53:22;;;;;;;1999.90;999.90;;;;;;;14.91;94.59;98838.44;8295060;28;20512;-78
2022/09/09 04:57:24;;;;;;;1999.90;999.90;;;;;;;14.94;94.43;98839.19;8303401;28;20151;-79
2022/09/09 05:01:26;;;;;;;1999.90;999.90;;;;;;;14.93;93.98;98847.06;8321402;28;20107;-78
2022/09/09 05:05:28;;;;;;;1999.90;999.90;;;;;;;14.92;93.58;98840.13;8287572;28;20753;-79
2022/09/09 05:09:30;;;;;;;1999.90;999.90;;;;;;;14.93;93.53;98829.63;8306820;28;20040;-79
2022/09/09 05:13:31;;;;;;;1999.90;999.90;;;;;;;14.96;93.65;98839.13;8299254;28;20038;-79
2022/09/09 05:17:40;;;;;;;1999.90;999.90;;;;;;;14.98;93.90;98842.56;8322935;28;20649;-79
2022/09/09 05:21:48;;;;;;;1999.90;999.90;;;;;;;14.97;93.56;98840.84;8308963;28;20050;-79
2022/09/09 05:25:57;;;;;;;1999.90;999.90;;;;;;;15.00;93.85;98844.22;8292497;28;20045;-79
2022/09/09 05:29:58;;;;;;;1999.90;999.90;;;;;;;15.05;93.83;98842.31;8291857;28;20120;-79
2022/09/09 05:34:00;;;;;;;1999.90;999.90;;;;;;;15.06;93.78;98843.16;8304245;28;20059;-79
2022/09/09 05:38:01;;;;;;;1999.90;999.90;;;;;;;15.06;93.91;98846.63;8280019;28;20101;-79
2022/09/09 05:42:04;;;;;;;1999.90;999.90;;;;;;;15.09;93.57;98848.31;8265664;28;20046;-78
2022/09/09 05:46:20;;;;;;;1999.90;999.90;;;;;;;15.10;93.28;98845.66;8282458;28;20049;-79
2022/09/09 05:50:28;;;;;;;1999.90;999.90;;;;;;;15.17;93.35;98859.38;8273714;28;20084;-78
2022/09/09 05:54:37;;;;;;;1999.90;999.90;;;;;;;15.23;93.17;98864.41;8282995;28;20129;-79
2022/09/09 05:58:39;;;;;;;1999.90;999.90;;;;;;;15.27;92.72;98873.03;8294421;28;20064;-79
2022/09/09 06:02:41;;;;;;;1999.90;999.90;;;;;;;15.31;92.33;98867.66;8290286;28;20099;-78
2022/09/09 06:06:42;;;;;;;;;;;;;;;15.34;92.27;98866.69;8277845;28;20103;-79
2022/09/09 06:10:44;;;;;;;1999.90;999.90;;;;;;;15.32;92.61;98865.88;8279116;28;20421;-77
2022/09/09 06:14:46;;;;;;;1999.90;999.90;;;;;;;15.36;92.61;98868.34;8304034;28;20049;-78
2022/09/09 06:18:56;;;;;;;1999.90;999.90;;;;;;;15.42;92.95;98860.28;8286788;28;20529;-78
2022/09/09 06:23:04;;;;;;;1999.90;999.90;;;;;;;15.48;93.26;98867.09;8277980;28;20042;-78
2022/09/09 06:27:05;;;;;;;1999.90;999.90;;;;;;;15.53;93.32;98874.78;8255725;28;20046;-78
2022/09/09 06:31:10;;;;;;;1999.90;999.90;;;;;;;15.60;92.84;98871.09;8276005;28;20054;-79
2022/09/09 06:35:12;;;;;;;1999.90;999.90;;;;;;;15.58;92.39;98865.03;8284840;28;20061;-79
2022/09/09 06:39:15;;;;;;;1999.90;999.90;;;;;;;15.68;92.61;98880.41;8286246;28;20057;-77
2022/09/09 06:43:17;;;;;;;1999.90;999.90;;;;;;;15.70;92.43;98873.38;8304948;28;20466;-78
2022/09/09 06:47:19;;;;;;;1999.90;999.90;;;;;;;15.77;91.68;98876.63;8315308;28;20045;-79
2022/09/09 06:51:29;;;;;;;1999.90;999.90;;;;;;;15.81;91.67;98877.41;8304681;28;20443;-79
2022/09/09 06:55:31;;;;;;;1999.90;999.90;;;;;;;15.87;91.64;98874.56;8304629;28;20091;-79
2022/09/09 06:59:32;;;;;;;1999.90;999.90;;;;;;;15.90;91.57;98869.22;8281913;28;20040;-78
2022/09/09 07:03:34;;;;;;;1999.90;999.90;;;;;;;15.99;90.79;98872.38;8283757;28;20049;-78
2022/09/09 07:07:36;;;;;;;1999.90;999.90;;;;;;;16.14;90.33;98870.13;8301618;28;20053;-77
2022/09/09 07:11:46;;;;;;;1999.90;999.90;;;;;;;16.23;89.33;98878.53;8284617;28;20494;-77
2022/09/09 07:15:47;;;;;;;1999.90;999.90;;;;;;;16.31;88.44;98888.72;8318711;28;20528;-78
2022/09/09 07:19:49;;;;;;;1999.90;999.90;;;;;;;16.32;88.14;98886.03;8311894;28;20049;-77
2022/09/09 07:23:51;;;;;;;1999.90;999.90;;;;;;;16.35;87.65;98886.88;8292028;28;20759;-77
2022/09/09 07:27:52;;;;;;;;;;;;;;;16.40;87.10;98893.63;8274653;28;20807;-77
2022/09/09 07:31:54;;;;;;;1999.90;999.90;;;;;;;16.53;87.00;98888.81;8311857;28;20721;-77
2022/09/09 07:36:10;;;;;;;1999.90;999.90;;;;;;;16.64;86.54;98894.50;8293989;28;20061;-77
2022/09/09 07:40:11;;;;;;;1999.90;999.90;;;;;;;16.71;85.34;98893.41;8293287;28;20049;-77
2022/09/09 07:44:16;;;;;;;1999.90;999.90;;;;;;;16.75;84.91;98899.41;8310534;28;20061;-77
2022/09/09 07:48:17;;;;;;;1999.90;999.90;;;;;;;16.76;84.54;98893.25;8304326;28;20088;-77
2022/09/09 07:52:19;;;;;;;1999.90;999.90;;;;;;;16.89;85.09;98897.97;8310329;28;20089;-77
2022/09/09 07:56:23;;;;;;;1999.90;999.90;;;;;;;16.98;83.78;98902.00;8301469;28;20540;-77
2022/09/09 08:00:24;;;;;;;1999.90;999.90;;;;;;;17.02;82.54;98895.72;8294935;28;20052;-77
2022/09/09 08:04:32;;;;;;;1999.90;999.90;;;;;;;17.13;81.66;98897.94;8313935;28;20075;-79
2022/09/09 08:08:35;;;;;;;1999.90;999.90;;;;;;;17.18;82.14;98903.84;8299423;28;20033;-80
2022/09/09 08:12:37;;;;;;;1999.90;999.90;;;;;;;17.20;81.16;98902.88;8301760;28;20444;-78
2022/09/09 08:16:41;;;;;;;1999.90;999.90;;;;;;;17.33;81.45;98903.25;8317126;28;20115;-79
2022/09/09 08:20:49;;;;;;;1999.90;999.90;;;;;;;17.43;80.62;98904.59;8302415;28;20069;-79
2022/09/09 08:24:51;;;;;;;1999.90;999.90;;;;;;;17.51;78.88;98906.91;8305878;28;20045;-79
2022/09/09 08:29:01;;;;;;;1999.90;999.90;;;;;;;17.67;78.49;98907.16;8294531;28;20033;-79
2022/09/09 08:33:09;;;;;;;1999.90;999.90;;;;;;;17.86;77.03;98907.28;8301801;28;20041;-79
2022/09/09 08:37:11;;;;;;;1999.90;999.90;;;;;;;18.05;76.01;98908.19;8288346;28;20521;-79
2022/09/09 08:41:43;;;;;;;1999.90;999.90;;;;;;;18.15;74.31;98913.94;8285767;28;20362;-79
2022/09/09 08:45:57;;;;;;;;;;;;;;;18.36;73.54;98905.13;8284610;28;20319;-79
2022/09/09 08:50:09;;;;;;;1999.90;999.90;;;;;;;18.51;72.12;98906.22;8271008;28;20394;-79
2022/09/09 08:54:11;;;;;;;1999.90;999.90;;;;;;;18.63;71.61;98909.16;8268808;28;20045;-80
2022/09/09 08:58:21;;;;;;;1999.90;999.90;;;;;;;19.04;70.18;98897.69;8292698;28;20045;-79
2022/09/09 09:02:32;;;;;;;1999.90;999.90;;;;;;;19.46;68.35;98907.97;8276476;28;20042;-80
2022/09/09 09:07:15;;;;;;;1999.90;999.90;;;;;;;19.76;66.89;98905.66;8261804;28;20042;-78
2022/09/09 09:11:23;;;;;;;1999.90;999.90;;;;;;;20.32;64.61;98899.28;8251901;28;20049;-78
2022/09/09 09:15:30;;;;;;;1999.90;999.90;;;;;;;20.56;63.33;98903.28;8271616;28;20046;-78
2022/09/09 09:19:35;;;;;;;1999.90;999.90;;;;;;;20.41;63.83;98899.69;8284224;28;20064;-77
2022/09/09 09:23:55;;;;;;;1999.90;999.90;;;;;;;20.00;62.57;98896.50;8283903;28;20075;-78
2022/09/09 09:28:21;;;;;;;1999.90;999.90;;;;;;;19.56;64.86;98891.66;8264874;28;20088;-78
2022/09/09 09:32:24;;;;;;;1999.90;999.90;;;;;;;19.07;65.36;98906.31;8275951;28;20045;-78
2022/09/09 09:36:42;;;;;;;1999.90;999.90;;;;;;;18.75;67.02;98897.25;8260323;28;20108;-78
2022/09/09 09:40:58;;;;;;;1999.90;999.90;;;;;;;18.83;67.28;98881.09;8276147;28;20038;-78
2022/09/09 09:45:41;;;;;;;1999.90;999.90;;;;;;;19.15;67.48;98880.47;8271019;28;20407;-80
2022/09/09 09:50:02;;;;;;;1999.90;999.90;;;;;;;19.61;64.41;98880.91;8183711;28;20065;-80
2022/09/09 09:54:38;;;;;;;1999.90;999.90;;;;;;;19.69;62.12;98876.09;8263544;28;20104;-80
2022/09/09 09:58:45;;;;;;;1999.90;999.90;;;;;;;19.92;62.17;98867.88;8269433;28;20056;-81
2022/09/09 10:02:48;;;;;;;1999.90;999.90;;;;;;;20.47;61.72;98875.63;8264823;28;20058;-80
2022/09/09 10:06:56;;;;;;;1999.90;999.90;;;;;;;21.15;58.69;98871.94;8273672;28;20077;-79
2022/09/09 10:11:03;;;;;;;1999.90;999.90;;;;;;;21.25;57.80;98874.03;8278275;28;20054;-79
2022/09/09 10:15:25;;;;;;;1999.90;999.90;;;;;;;21.59;57.15;98870.31;8276266;28;20046;-80
2022/09/09 10:19:35;;;;;;;1999.90;999.90;;;;;;;21.35;57.51;98880.47;8252779;28;20049;-80
2022/09/09 10:23:58;;;;;;;1999.90;999.90;;;;;;;20.59;58.10;98875.91;8268262;28;20050;-78
2022/09/09 10:28:22;;;;;;;1999.90;999.90;;;;;;;20.02;61.43;98884.09;8275738;28;20494;-78
2022/09/09 10:32:56;;;;;;;1999.90;999.90;;;;;;;19.54;64.50;98882.97;8298909;28;20053;-80
2022/09/09 10:36:58;;;;;;;1999.90;999.90;;;;;;;19.24;67.07;98882.66;8249704;28;20058;-81
2022/09/09 10:41:40;;;;;;;1999.90;999.90;;;;;;;18.96;69.47;98875.22;8261597;28;20447;-81
2022/09/09 10:46:03;;;;;;;1999.90;999.90;;;;;;;18.96;71.56;98877.00;8295318;28;20053;-80
2022/09/09 10:50:13;;;;;;;1999.90;999.90;;;;;;;18.86;72.65;98873.94;8288097;28;20255;-80
2022/09/09 10:54:33;;;;;;;1999.90;999.90;;;;;;;18.95;72.45;98873.50;8248261;28;20061;-80
2022/09/09 10:58:46;;;;;;;1999.90;999.90;;;;;;;19.52;72.18;98876.06;8275134;28;20042;-79
2022/09/09 11:02:53;;;;;;;1999.90;999.90;;;;;;;20.06;69.17;98871.63;8290615;28;20061;-79
2022/09/09 11:06:55;;;;;;;1999.90;999.90;;;;;;;20.51;67.33;98871.91;8280247;28;20120;-79
2022/09/09 11:11:09;;;;;;;1999.90;999.90;;;;;;;20.91;64.47;98872.38;8258257;28;20038;-79
2022/09/09 11:15:35;;;;;;;1999.90;999.90;;;;;;;21.62;63.80;98864.84;8279980;28;20073;-79
2022/09/09 11:19:43;;;;;;;1999.90;999.90;;;;;;;21.78;60.87;98856.03;8285258;28;20073;-78
2022/09/09 11:24:09;;;;;;;1999.90;999.90;;;;;;;22.17;60.58;98853.69;8283258;28;20052;-78
2022/09/09 11:29:00;;;;;;;1999.90;999.90;;;;;;;22.41;58.22;98847.84;8250425;28;20466;-77
2022/09/09 11:33:34;;;;;;;1999.90;999.90;;;;;;;22.50;57.83;98842.00;8255756;28;20089;-78
2022/09/09 11:37:46;;;;;;;1999.90;999.90;;;;;;;22.36;59.31;98850.78;8252572;28;20054;-77
2022/09/09 11:41:48;;;;;;;1999.90;999.90;;;;;;;22.01;60.69;98847.59;8269946;28;51607;-75
2022/09/09 11:45:57;;;;;;;1999.90;999.90;;;;;;;21.38;61.66;98853.06;8220196;28;20047;-79
2022/09/09 11:50:10;;;;;;;1999.90;999.90;;;;;;;20.95;64.01;98852.78;8233679;28;20049;-75
2022/09/09 11:54:48;;;;;;;1999.90;999.90;;;;;;;20.49;64.77;98872.91;8232983;28;20054;-77
2022/09/09 11:59:19;;;;;;;1999.90;999.90;;;;;;;19.84;68.13;98875.34;8251262;28;20596;-77
2022/09/09 12:03:39;;;;;;;1999.90;999.90;;;;;;;19.64;71.45;98866.75;8218765;28;20062;-78
2022/09/09 12:07:53;;;;;;;1999.90;999.90;;;;;;;20.02;71.26;98864.81;8235506;28;20050;-78
2022/09/09 12:12:22;;;;;;;1999.90;999.90;;;;;;;20.58;70.54;98853.94;8217993;28;20455;-78
2022/09/09 12:16:36;;;;;;;1999.90;999.90;;;;;;;20.98;65.49;98849.13;8233527;28;20046;-78
2022/09/09 12:20:38;;;;;;;1999.90;999.90;;;;;;;21.17;64.23;98863.00;8249815;28;20073;-78
2022/09/09 12:24:47;;;;;;;1999.90;999.90;;;;;;;21.11;63.71;98855.44;8229061;28;20149;-77
2022/09/09 12:29:08;;;;;;;1999.90;999.90;;;;;;;21.08;64.11;98851.19;8234167;28;20046;-80
2022/09/09 12:33:17;;;;;;;1999.90;999.90;;;;;;;20.94;63.75;98864.28;8228988;28;20047;-78
2022/09/09 12:37:26;;;;;;;1999.90;999.90;;;;;;;20.64;63.75;98842.19;8214436;28;20058;-78
2022/09/09 12:41:31;;;;;;;1999.90;999.90;;;;;;;20.40;65.12;98870.72;8211284;28;20120;-78
2022/09/09 12:45:33;;;;;;;1999.90;999.90;;;;;;;20.05;67.26;98875.19;8195980;28;20058;-78
2022/09/09 12:49:38;;;;;;;1999.90;999.90;;;;;;;19.70;67.92;98875.19;8174490;28;20109;-78
2022/09/09 12:53:39;;;;;;;1999.90;999.90;;;;;;;19.39;67.94;98857.38;8195953;28;20065;-79
2022/09/09 12:57:43;;;;;;;1999.90;999.90;;;;;;;19.38;70.14;98847.75;8199576;28;20047;-79
2022/09/09 13:01:56;;;;;;;1999.90;999.90;;;;;;;19.36;71.94;98852.25;8198977;28;20043;-79
2022/09/09 13:06:11;;;;;;;1999.90;999.90;;;;;;;19.13;71.87;98849.88;8208363;28;20509;-79
2022/09/09 13:10:19;;;;;;;1999.90;999.90;;;;;;;19.37;71.78;98853.09;8194213;28;20110;-78
2022/09/09 13:14:39;;;;;;;1999.90;999.90;;;;;;;19.95;69.75;98832.66;8198269;28;20699;-77
2022/09/09 13:18:42;;;;;;;1999.90;999.90;;;;;;;20.45;67.10;98835.28;8197029;28;20105;-78
2022/09/09 13:22:44;;;;;;;1999.90;999.90;;;;;;;20.64;65.43;98829.84;8199100;28;20089;-79
2022/09/09 13:26:56;;;;;;;;;;;;;;;20.52;62.71;98822.63;8182638;28;20047;-78
2022/09/09 13:31:18;;;;;;;1999.90;999.90;;;;;;;20.60;64.52;98824.84;8214337;28;19922;-78
2022/09/09 13:35:24;;;;;;;1999.90;999.90;;;;;;;20.56;62.89;98831.22;8233763;28;20062;-78
2022/09/09 13:39:26;;;;;;;1999.90;999.90;;;;;;;20.62;63.22;98829.09;8220543;28;20035;-78
2022/09/09 13:43:38;;;;;;;1999.90;999.90;;;;;;;20.99;62.21;98830.56;8234746;28;20046;-78
2022/09/09 13:47:47;;;;;;;;;;;;;;;21.22;61.24;98826.66;8222852;28;20112;-78
2022/09/09 13:52:04;;;;;;;1999.90;999.90;;;;;;;21.29;60.93;98820.09;8252502;28;19925;-77
2022/09/09 13:56:08;;;;;;;1999.90;999.90;;;;;;;21.45;60.95;98813.94;8236364;28;20486;-79
2022/09/09 14:00:13;;;;;;;1999.90;999.90;;;;;;;21.66;60.15;98812.69;8231417;28;20075;-78
2022/09/09 14:04:30;;;;;;;1999.90;999.90;;;;;;;21.61;58.47;98806.81;8248031;28;20456;-78
2022/09/09 14:08:36;;;;;;;1999.90;999.90;;;;;;;21.41;58.54;98808.84;8234858;28;20046;-77
2022/09/09 14:12:38;;;;;;;1999.90;999.90;;;;;;;21.21;58.38;98810.88;8250736;28;20046;-77
2022/09/09 14:16:40;;;;;;;1999.90;999.90;;;;;;;20.92;59.75;98815.16;8216581;28;20058;-77
2022/09/09 14:20:41;;;;;;;1999.90;999.90;;;;;;;20.89;60.77;98816.19;8256486;28;20050;-77
2022/09/09 14:24:43;;;;;;;1999.90;999.90;;;;;;;20.95;61.59;98829.03;8250451;28;20113;-77
2022/09/09 14:28:45;;;;;;;1999.90;999.90;;;;;;;21.16;60.65;98816.41;8235574;28;20096;-77
2022/09/09 14:32:56;;;;;;;1999.90;999.90;;;;;;;21.07;60.27;98816.94;8238251;28;20038;-77
2022/09/09 14:37:04;;;;;;;1999.90;999.90;;;;;;;21.25;60.40;98821.22;8208569;28;20054;-76
2022/09/09 14:41:16;;;;;;;1999.90;999.90;;;;;;;21.15;59.46;98819.13;8219698;28;20055;-77
2022/09/09 14:45:19;;;;;;;1999.90;999.90;;;;;;;21.03;60.69;98808.34;8182631;28;20126;-76
2022/09/09 14:49:24;;;;;;;1999.90;999.90;;;;;;;21.27;61.19;98806.13;8213878;28;20062;-77
2022/09/09 14:53:26;;;;;;;1999.90;999.90;;;;;;;21.38;60.41;98803.72;8200980;28;20050;-77
2022/09/09 14:57:35;;;;;;;1999.90;999.90;;;;;;;20.94;60.27;98808.00;8206798;28;20053;-78
2022/09/09 15:01:56;;;;;;;1999.90;999.90;;;;;;;20.46;61.57;98807.13;8225384;28;20050;-78
2022/09/09 15:06:11;;;;;;;;;;;;;;;20.29;62.70;98808.00;8207224;28;20129;-78
2022/09/09 15:10:39;;;;;;;1999.90;999.90;;;;;;;19.98;62.48;98792.09;8207144;28;19926;-78
2022/09/09 15:15:26;;;;;;;1999.90;999.90;;;;;;;19.79;63.70;98805.38;8229777;28;20063;-78
2022/09/09 15:19:43;;;;;;;1999.90;999.90;;;;;;;19.72;64.23;98815.34;8202808;28;20050;-78
2022/09/09 15:24:13;;;;;;;1999.90;999.90;;;;;;;19.59;64.04;98862.56;8213428;28;20073;-78
2022/09/09 15:28:38;;;;;;;1999.90;999.90;;;;;;;19.27;62.49;98853.56;8223511;28;20061;-78
2022/09/09 15:33:10;;;;;;;1999.90;999.90;;;;;;;18.75;67.57;98870.09;8200379;28;20161;-77
2022/09/09 15:37:32;;;;;;;1999.90;999.90;;;;;;;18.11;71.62;98845.72;8218609;28;20487;-77
2022/09/09 15:41:39;;;;;;;1999.90;999.90;;;;;;;17.55;73.02;98855.97;8210067;28;20463;-79
2022/09/09 15:45:49;;;;;;;1999.90;999.90;;;;;;;17.23;76.54;98854.66;8232683;28;20077;-78
2022/09/09 15:49:52;;;;;;;1999.90;999.90;;;;;;;16.99;79.42;98856.50;8210311;28;20069;-78
2022/09/09 15:53:58;;;;;;;1999.90;999.90;;;;;;;16.79;80.41;98895.72;8221184;28;20170;-78
2022/09/09 15:58:02;;;;;;;1999.90;999.90;;;;;;;16.48;81.99;98862.75;8219550;28;20145;-76
2022/09/09 16:02:07;;;;;;;1999.90;999.90;;;;;;;16.28;80.22;98847.75;8221104;28;20069;-77
2022/09/09 16:06:24;;;;;;;1999.90;999.90;;;;;;;16.20;82.83;98848.97;8201043;28;20903;-77
2022/09/09 16:10:30;;;;;;;1999.90;999.90;;;;;;;16.24;84.23;98842.69;8202228;28;20497;-76
2022/09/09 16:14:41;;;;;;;1999.90;999.90;;;;;;;16.82;85.42;98848.41;8214119;28;20043;-77
2022/09/09 16:19:02;;;;;;;1999.90;999.90;;;;;;;17.69;84.84;98858.06;8203774;28;20430;-77
2022/09/09 16:23:07;;;;;;;1999.90;999.90;;;;;;;18.54;81.05;98867.50;8199179;28;20062;-77
2022/09/09 16:27:23;;;;;;;1999.90;999.90;;;;;;;18.36;76.98;98870.94;8215935;28;20437;-77
2022/09/09 16:31:40;;;;;;;1999.90;999.90;;;;;;;18.81;76.16;98865.41;8201768;28;20129;-78
2022/09/09 16:35:49;;;;;;;1999.90;999.90;;;;;;;18.45;75.28;98867.03;8173702;28;20074;-76
2022/09/09 16:39:54;;;;;;;1999.90;999.90;;;;;;;18.09;77.97;98876.47;8207855;28;20050;-76
2022/09/09 16:44:13;;;;;;;1999.90;999.90;;;;;;;17.88;79.68;98873.91;8175493;28;20043;-77
2022/09/09 16:48:21;;;;;;;1999.90;999.90;;;;;;;17.68;80.92;98875.59;8195985;28;20050;-78
2022/09/09 16:52:37;;;;;;;1999.90;999.90;;;;;;;17.52;82.19;98877.13;8197480;28;20073;-76
2022/09/09 16:56:52;;;;;;;1999.90;999.90;;;;;;;17.35;83.16;98872.53;8195898;28;20039;-76
2022/09/09 17:01:04;;;;;;;1999.90;999.90;;;;;;;17.20;83.28;98878.41;8213404;28;20041;-77
2022/09/09 17:05:05;;;;;;;1999.90;999.90;;;;;;;17.12;84.44;98881.34;8203481;28;20110;-76
2022/09/09 17:09:10;;;;;;;1999.90;999.90;;;;;;;17.05;84.72;98882.47;8214209;28;20051;-76
2022/09/09 17:13:13;;;;;;;1999.90;999.90;;;;;;;16.94;85.21;98886.44;8219109;28;20047;-76
2022/09/09 17:17:15;;;;;;;1999.90;999.90;;;;;;;16.74;84.59;98885.44;8207463;28;20512;-76
2022/09/09 17:21:32;;;;;;;1999.90;999.90;;;;;;;16.63;84.87;98895.41;8219390;28;20043;-76
2022/09/09 17:25:35;;;;;;;1999.90;999.90;;;;;;;16.51;85.79;98899.31;8205962;28;20058;-77
2022/09/09 17:29:37;;;;;;;1999.90;999.90;;;;;;;16.43;86.38;98908.41;8220763;28;20093;-75
2022/09/09 17:33:49;;;;;;;1999.90;999.90;;;;;;;16.38;86.68;98923.44;8206908;28;20546;-75
2022/09/09 17:37:53;;;;;;;1999.90;999.90;;;;;;;16.28;86.86;98926.34;8249436;28;20061;-75
2022/09/09 17:41:54;;;;;;;1999.90;999.90;;;;;;;16.24;87.27;98926.53;8229969;28;20050;-75
2022/09/09 17:46:12;;;;;;;1999.90;999.90;;;;;;;16.21;88.92;98929.25;8249541;28;20468;-75
2022/09/09 17:50:14;;;;;;;1999.90;999.90;;;;;;;16.16;88.92;98939.91;8230061;28;20038;-75
2022/09/09 17:54:22;;;;;;;1999.90;999.90;;;;;;;16.11;89.46;98943.56;8229067;28;20049;-75
2022/09/09 17:58:30;;;;;;;1999.90;999.90;;;;;;;16.12;90.11;98945.28;8252820;28;20053;-75
2022/09/09 18:02:32;;;;;;;1999.90;999.90;;;;;;;16.14;91.12;98954.78;8231636;28;20108;-74
2022/09/09 18:06:36;;;;;;;1999.90;999.90;;;;;;;16.15;91.50;98951.25;8252551;28;20073;-73
2022/09/09 18:10:38;;;;;;;1999.90;999.90;;;;;;;16.15;91.63;98966.97;8252220;28;20356;-74
2022/09/09 18:14:49;;;;;;;1999.90;999.90;;;;;;;16.16;92.34;98960.88;8229606;28;20050;-74
2022/09/09 18:18:51;;;;;;;1999.90;999.90;;;;;;;16.17;93.22;98957.34;8253145;28;20050;-74
2022/09/09 18:22:52;;;;;;;1999.90;999.90;;;;;;;16.15;93.13;98959.13;8251125;28;20051;-74
2022/09/09 18:27:00;;;;;;;1999.90;999.90;;;;;;;16.16;93.02;98962.63;8247643;28;20042;-74
2022/09/09 18:31:11;;;;;;;1999.90;999.90;;;;;;;16.10;92.90;98973.28;8236814;28;20108;-75
2022/09/09 18:35:12;;;;;;;1999.90;999.90;;;;;;;16.04;93.15;98986.59;8233160;28;20069;-76